createdAt,value
2022-09-23T00:00:35.119Z,2.90
2022-09-23T00:03:02.003Z,2.60
2022-09-23T00:05:30.302Z,2.80
2022-09-23T00:07:57.844Z,2.47
2022-09-23T00:10:26.904Z,2.87
2022-09-23T00:12:54.502Z,2.73
2022-09-23T00:15:21.950Z,2.90
2022-09-23T00:17:50.125Z,2.60
2022-09-23T00:20:17.829Z,3.00
2022-09-23T00:22:44.704Z,2.80
2022-09-23T00:25:11.873Z,2.57
2022-09-23T00:27:39.532Z,2.57
2022-09-23T00:30:08.852Z,2.50
2022-09-23T00:32:36.517Z,2.50
2022-09-23T00:35:06.058Z,2.60
2022-09-23T00:37:32.962Z,2.33
2022-09-23T00:40:00.705Z,2.47
2022-09-23T00:42:27.531Z,2.50
2022-09-23T00:44:57.259Z,2.57
2022-09-23T00:47:29.670Z,2.60
2022-09-23T00:50:02.264Z,2.33
2022-09-23T00:52:32.166Z,2.43
2022-09-23T00:55:03.506Z,2.40
2022-09-23T00:57:31.180Z,2.60
2022-09-23T00:59:58.283Z,2.40
2022-09-23T01:02:26.204Z,2.30
2022-09-23T01:04:53.247Z,2.30
2022-09-23T01:07:20.585Z,2.40
2022-09-23T01:09:49.413Z,2.50
2022-09-23T01:12:30.488Z,2.57
2022-09-23T01:15:07.980Z,2.70
2022-09-23T01:17:44.129Z,2.73
2022-09-23T01:20:54.859Z,2.43
2022-09-23T01:24:02.320Z,2.40
2022-09-23T01:27:00.965Z,2.60
2022-09-23T01:29:45.371Z,2.63
2022-09-23T01:32:18.148Z,2.40
2022-09-23T01:34:49.733Z,2.40
2022-09-23T01:37:25.034Z,2.70
2022-09-23T01:40:01.701Z,2.63
2022-09-23T01:42:35.984Z,2.60
2022-09-23T01:45:10.866Z,2.50
2022-09-23T01:47:44.927Z,2.40
2022-09-23T01:50:36.455Z,2.40
2022-09-23T01:53:10.802Z,2.60
2022-09-23T01:55:41.729Z,2.63
2022-09-23T01:58:12.399Z,2.60
2022-09-23T02:00:48.008Z,2.80
2022-09-23T02:03:21.097Z,2.53
2022-09-23T02:05:53.453Z,2.60
2022-09-23T02:08:23.639Z,2.60
2022-09-23T02:10:54.408Z,2.30
2022-09-23T02:13:28.237Z,2.57
2022-09-23T02:16:01.084Z,2.50
2022-09-23T02:18:33.773Z,2.73
2022-09-23T02:21:05.587Z,2.60
2022-09-23T02:23:36.104Z,2.60
2022-09-23T02:26:08.797Z,2.77
2022-09-23T02:28:44.224Z,2.60
2022-09-23T02:31:19.945Z,2.60
2022-09-23T02:33:54.765Z,2.50
2022-09-23T02:36:26.496Z,2.70
2022-09-23T02:38:57.498Z,2.53
2022-09-23T02:41:32.291Z,2.90
2022-09-23T02:44:06.252Z,2.30
2022-09-23T02:46:34.235Z,2.67
2022-09-23T02:49:10.058Z,2.50
2022-09-23T02:51:38.186Z,2.33
2022-09-23T02:54:10.193Z,2.87
2022-09-23T02:56:39.053Z,2.70
2022-09-23T02:59:06.125Z,2.50
2022-09-23T03:01:46.613Z,3.20
2022-09-23T03:04:25.755Z,2.60
2022-09-23T03:06:59.177Z,2.70
2022-09-23T03:09:31.753Z,3.03
2022-09-23T03:12:09.991Z,2.97
2022-09-23T03:14:44.914Z,2.73
2022-09-23T03:17:20.023Z,2.50
2022-09-23T03:19:53.973Z,2.70
2022-09-23T03:22:26.001Z,2.80
2022-09-23T03:24:55.395Z,3.40
2022-09-23T03:27:25.809Z,3.03
2022-09-23T03:29:54.462Z,3.07
2022-09-23T03:32:24.736Z,3.00
2022-09-23T03:34:55.028Z,3.00
2022-09-23T03:37:26.276Z,3.20
2022-09-23T03:39:57.208Z,3.10
2022-09-23T03:42:26.753Z,2.90
2022-09-23T03:44:57.163Z,2.87
2022-09-23T03:47:26.052Z,2.80
2022-09-23T03:49:54.701Z,2.80
2022-09-23T03:52:23.863Z,3.20
2022-09-23T03:54:52.041Z,3.20
2022-09-23T03:57:21.906Z,3.13
2022-09-23T03:59:49.445Z,3.03
2022-09-23T04:02:16.777Z,3.20
2022-09-23T04:04:44.340Z,3.27
2022-09-23T04:07:13.300Z,3.07
2022-09-23T04:09:41.292Z,3.33
2022-09-23T04:12:11.676Z,3.23
2022-09-23T04:14:39.101Z,3.03
2022-09-23T04:17:05.940Z,3.00
2022-09-23T04:19:32.869Z,2.90
2022-09-23T04:21:59.804Z,3.20
2022-09-23T04:24:28.209Z,3.17
2022-09-23T04:26:56.603Z,2.90
2022-09-23T04:29:24.556Z,3.43
2022-09-23T04:31:51.745Z,3.10
2022-09-23T04:34:19.303Z,3.20
2022-09-23T04:36:47.689Z,3.47
2022-09-23T04:39:16.311Z,3.50
2022-09-23T04:41:45.678Z,3.30
2022-09-23T04:44:13.407Z,3.30
2022-09-23T04:46:41.112Z,4.13
2022-09-23T04:49:08.493Z,4.10
2022-09-23T04:51:35.720Z,4.07
2022-09-23T04:54:02.790Z,4.00
2022-09-23T04:56:34.120Z,3.80
2022-09-23T04:59:02.419Z,3.63
2022-09-23T05:01:30.862Z,3.57
2022-09-23T05:04:01.810Z,3.77
2022-09-23T05:06:29.720Z,3.73
2022-09-23T05:08:58.812Z,3.33
2022-09-23T05:11:26.796Z,3.20
2022-09-23T05:13:54.947Z,3.50
2022-09-23T05:16:24.513Z,3.77
2022-09-23T05:18:53.039Z,3.77
2022-09-23T05:21:21.682Z,4.10
2022-09-23T05:23:49.610Z,3.70
2022-09-23T05:26:16.545Z,3.90
2022-09-23T05:28:43.429Z,3.63
2022-09-23T05:31:19.347Z,3.90
2022-09-23T05:33:51.729Z,4.03
2022-09-23T05:36:20.553Z,3.90
2022-09-23T05:38:49.182Z,3.80
2022-09-23T05:41:16.467Z,3.73
2022-09-23T05:43:43.433Z,3.53
2022-09-23T05:46:11.955Z,3.30
2022-09-23T05:48:39.644Z,3.50
2022-09-23T05:51:12.980Z,3.90
2022-09-23T05:53:44.781Z,3.97
2022-09-23T05:56:12.526Z,4.20
2022-09-23T05:58:40.112Z,3.87
2022-09-23T06:01:11.233Z,3.70
2022-09-23T06:03:38.278Z,3.70
2022-09-23T06:06:05.531Z,3.90
2022-09-23T06:08:34.588Z,3.90
2022-09-23T06:11:08.272Z,3.87
2022-09-23T06:13:37.205Z,3.93
2022-09-23T06:16:04.907Z,4.07
2022-09-23T06:18:32.028Z,4.43
2022-09-23T06:21:01.416Z,4.10
2022-09-23T06:23:28.343Z,5.40
2022-09-23T06:26:00.258Z,4.10
2022-09-23T06:28:31.141Z,4.70
2022-09-23T06:30:58.757Z,4.33
2022-09-23T06:33:35.591Z,3.97
2022-09-23T06:36:05.421Z,4.37
2022-09-23T06:38:34.044Z,4.23
2022-09-23T06:41:03.444Z,4.00
2022-09-23T06:43:30.793Z,4.30
2022-09-23T06:45:59.553Z,4.20
2022-09-23T06:48:27.960Z,4.03
2022-09-23T06:50:58.193Z,4.20
2022-09-23T06:53:25.557Z,4.07
2022-09-23T06:55:59.319Z,4.00
2022-09-23T06:58:28.193Z,4.13
2022-09-23T07:01:00.873Z,3.93
2022-09-23T07:03:27.938Z,3.93
2022-09-23T07:05:54.797Z,3.70
2022-09-23T07:08:21.705Z,3.60
2022-09-23T07:10:51.900Z,3.77
2022-09-23T07:13:19.047Z,3.37
2022-09-23T07:15:51.771Z,3.10
2022-09-23T07:18:18.948Z,3.30
2022-09-23T07:20:46.541Z,3.23
2022-09-23T07:23:13.448Z,3.00
2022-09-23T07:25:40.441Z,2.60
2022-09-23T07:28:07.577Z,2.93
2022-09-23T07:30:36.803Z,3.20
2022-09-23T07:33:18.970Z,3.07
2022-09-23T07:35:51.537Z,2.77
2022-09-23T07:38:18.389Z,2.83
2022-09-23T07:40:45.298Z,2.43
2022-09-23T07:43:12.264Z,2.60
2022-09-23T07:45:43.395Z,2.67
2022-09-23T07:48:11.700Z,3.07
2022-09-23T07:50:39.628Z,2.33
2022-09-23T07:53:07.432Z,2.60
2022-09-23T07:55:35.068Z,2.53
2022-09-23T07:58:02.532Z,2.30
2022-09-23T08:00:29.516Z,2.30
2022-09-23T08:02:56.421Z,2.27
2022-09-23T08:05:25.977Z,2.70
2022-09-23T08:07:52.837Z,2.37
2022-09-23T08:10:21.047Z,2.50
2022-09-23T08:12:48.891Z,2.23
2022-09-23T08:15:17.547Z,2.37
2022-09-23T08:17:44.828Z,2.30
2022-09-23T08:20:34.303Z,2.57
2022-09-23T08:23:02.460Z,2.70
2022-09-23T08:25:32.085Z,2.40
2022-09-23T08:28:01.212Z,2.43
2022-09-23T08:30:28.231Z,2.37
2022-09-23T08:32:55.067Z,2.50
2022-09-23T08:35:21.965Z,2.77
2022-09-23T08:37:48.913Z,2.63
2022-09-23T08:40:18.436Z,2.60
2022-09-23T08:42:47.026Z,2.80
2022-09-23T08:45:19.081Z,2.70
2022-09-23T08:47:51.161Z,2.97
2022-09-23T08:50:20.673Z,2.30
2022-09-23T08:52:52.684Z,2.20
2022-09-23T08:55:29.528Z,2.30
2022-09-23T08:58:24.556Z,2.30
2022-09-23T09:01:02.416Z,2.17
2022-09-23T09:03:35.598Z,1.90
2022-09-23T09:06:03.456Z,2.20
2022-09-23T09:08:33.391Z,2.20
2022-09-23T09:11:02.540Z,2.30
2022-09-23T09:13:32.575Z,2.20
2022-09-23T09:16:15.369Z,2.20
2022-09-23T09:18:50.499Z,2.20
2022-09-23T09:21:17.369Z,2.33
2022-09-23T09:23:50.182Z,1.97
2022-09-23T09:26:22.115Z,1.97
2022-09-23T09:28:52.567Z,1.77
2022-09-23T09:31:29.119Z,2.00
2022-09-23T09:34:03.012Z,1.73
2022-09-23T09:36:38.186Z,2.07
2022-09-23T09:39:05.649Z,1.83
2022-09-23T09:41:33.880Z,2.10
2022-09-23T09:44:03.519Z,1.80
2022-09-23T09:46:45.002Z,1.80
2022-09-23T09:49:23.045Z,1.87
2022-09-23T09:52:19.470Z,1.83
2022-09-23T09:54:46.460Z,1.80
2022-09-23T09:57:25.241Z,1.70
2022-09-23T09:59:52.407Z,1.57
2022-09-23T10:02:26.377Z,1.77
2022-09-23T10:04:56.834Z,1.93
2022-09-23T10:07:27.155Z,1.50
2022-09-23T10:09:55.872Z,1.57
2022-09-23T10:12:44.073Z,1.77
2022-09-23T10:15:27.921Z,1.80
2022-09-23T10:17:54.831Z,2.03
2022-09-23T10:20:21.773Z,2.20
2022-09-23T10:22:48.949Z,1.80
2022-09-23T10:25:19.737Z,1.93
2022-09-23T10:27:47.997Z,2.00
2022-09-23T10:30:21.692Z,2.00
2022-09-23T10:32:49.900Z,1.93
2022-09-23T10:35:20.930Z,1.97
2022-09-23T10:37:51.581Z,1.80
2022-09-23T10:40:42.581Z,1.80
2022-09-23T10:43:50.934Z,1.97
2022-09-23T10:46:38.357Z,1.80
2022-09-23T10:49:36.550Z,2.20
2022-09-23T10:52:36.021Z,2.00
2022-09-23T10:55:15.695Z,1.90
2022-09-23T10:57:58.431Z,1.97
2022-09-23T11:00:37.805Z,1.97
2022-09-23T11:03:47.843Z,1.80
2022-09-23T11:06:23.031Z,1.90
2022-09-23T11:09:03.983Z,2.17
2022-09-23T11:11:40.926Z,1.80
2022-09-23T11:14:26.946Z,2.03
2022-09-23T11:17:25.881Z,1.90
2022-09-23T11:20:11.068Z,2.00
2022-09-23T11:22:53.227Z,2.00
2022-09-23T11:25:34.350Z,2.10
2022-09-23T11:28:23.742Z,2.07
2022-09-23T11:30:59.358Z,1.70
2022-09-23T11:33:41.494Z,2.03
2022-09-23T11:36:12.433Z,1.80
2022-09-23T11:38:44.887Z,1.80
2022-09-23T11:41:17.908Z,1.90
2022-09-23T11:43:51.271Z,1.90
2022-09-23T11:46:29.022Z,2.10
2022-09-23T11:49:01.991Z,1.80
2022-09-23T11:51:31.939Z,2.10
2022-09-23T11:54:02.928Z,2.07
2022-09-23T11:56:36.561Z,2.10
2022-09-23T11:59:10.318Z,2.10
2022-09-23T12:01:45.593Z,2.10
2022-09-23T12:04:24.367Z,2.07
2022-09-23T12:06:56.828Z,2.20
2022-09-23T12:09:54.114Z,2.00
2022-09-23T12:12:25.064Z,2.30
2022-09-23T12:14:59.807Z,2.20
2022-09-23T12:17:54.424Z,2.00
2022-09-23T12:20:42.311Z,2.20
2022-09-23T12:23:26.830Z,2.10
2022-09-23T12:25:57.152Z,2.17
2022-09-23T12:28:28.231Z,2.30
2022-09-23T12:30:58.938Z,2.43
2022-09-23T12:33:27.973Z,2.07
2022-09-23T12:36:04.729Z,2.33
2022-09-23T12:38:36.355Z,2.20
2022-09-23T12:41:20.605Z,2.10
2022-09-23T12:43:51.534Z,2.07
2022-09-23T12:46:25.603Z,1.90
2022-09-23T12:49:00.990Z,2.37
2022-09-23T12:51:30.287Z,2.37
2022-09-23T12:54:22.816Z,2.10
2022-09-23T12:57:00.940Z,2.00
2022-09-23T12:59:30.440Z,1.97
2022-09-23T13:01:58.647Z,2.30
2022-09-23T13:04:51.169Z,2.40
2022-09-23T13:07:25.314Z,2.40
2022-09-23T13:09:56.388Z,2.20
2022-09-23T13:12:29.284Z,2.20
2022-09-23T13:15:00.745Z,2.90
2022-09-23T13:17:32.013Z,2.40
2022-09-23T13:20:01.854Z,2.97
2022-09-23T13:23:03.930Z,3.00
2022-09-23T13:25:35.007Z,2.30
2022-09-23T13:28:03.890Z,3.00
2022-09-23T13:30:30.861Z,3.03
2022-09-23T13:33:06.289Z,2.70
2022-09-23T13:35:37.281Z,2.50
2022-09-23T13:38:19.482Z,2.70
2022-09-23T13:40:47.246Z,2.60
2022-09-23T13:43:20.853Z,2.87
2022-09-23T13:45:47.920Z,3.10
2022-09-23T13:48:15.603Z,3.20
2022-09-23T13:50:47.797Z,3.53
2022-09-23T13:53:23.200Z,3.00
2022-09-23T13:56:01.437Z,3.13
2022-09-23T13:58:30.130Z,2.83
2022-09-23T14:00:57.523Z,3.00
2022-09-23T14:03:26.887Z,2.80
2022-09-23T14:05:54.753Z,2.80
2022-09-23T14:08:24.034Z,2.60
2022-09-23T14:10:51.519Z,2.40
2022-09-23T14:13:25.672Z,2.67
2022-09-23T14:15:55.648Z,3.00
2022-09-23T14:18:30.108Z,2.70
2022-09-23T14:20:57.032Z,2.53
2022-09-23T14:23:25.807Z,2.60
2022-09-23T14:25:53.701Z,2.80
2022-09-23T14:28:22.917Z,2.53
2022-09-23T14:30:52.654Z,2.50
2022-09-23T14:33:25.125Z,2.63
2022-09-23T14:35:54.737Z,2.90
2022-09-23T14:38:47.293Z,2.80
2022-09-23T14:41:22.089Z,2.93
2022-09-23T14:43:55.470Z,3.40
2022-09-23T14:46:24.071Z,3.53
2022-09-23T14:49:03.886Z,3.40
2022-09-23T14:51:35.218Z,3.77
2022-09-23T14:54:36.824Z,3.77
2022-09-23T14:57:19.224Z,3.60
2022-09-23T14:59:52.112Z,3.23
2022-09-23T15:02:31.401Z,3.33
2022-09-23T15:05:15.586Z,3.70
2022-09-23T15:07:44.665Z,3.40
2022-09-23T15:10:23.363Z,3.77
2022-09-23T15:12:52.415Z,3.20
2022-09-23T15:15:21.265Z,3.30
2022-09-23T15:17:48.212Z,3.30
2022-09-23T15:20:21.792Z,3.40
2022-09-23T15:22:50.502Z,3.60
2022-09-23T15:25:22.383Z,3.40
2022-09-23T15:28:03.204Z,3.67
2022-09-23T15:30:31.835Z,4.40
2022-09-23T15:32:58.755Z,3.80
2022-09-23T15:35:26.761Z,3.20
2022-09-23T15:37:58.172Z,4.97
2022-09-23T15:40:28.650Z,4.50
2022-09-23T15:42:57.296Z,3.70
2022-09-23T15:45:31.245Z,3.10
2022-09-23T15:48:03.275Z,3.37
2022-09-23T15:50:31.177Z,3.10
2022-09-23T15:52:58.295Z,3.30
2022-09-23T15:55:26.529Z,3.13
2022-09-23T15:57:53.454Z,3.03
2022-09-23T16:00:21.262Z,3.13
2022-09-23T16:02:49.183Z,2.97
2022-09-23T16:05:23.531Z,3.07
2022-09-23T16:07:52.498Z,2.83
2022-09-23T16:10:21.420Z,3.33
2022-09-23T16:12:51.952Z,3.40
2022-09-23T16:15:20.828Z,3.60
2022-09-23T16:17:47.738Z,3.97
2022-09-23T16:20:17.600Z,3.57
2022-09-23T16:22:49.366Z,3.47
2022-09-23T16:25:16.994Z,3.60
2022-09-23T16:27:44.438Z,3.47
2022-09-23T16:30:13.205Z,3.80
2022-09-23T16:32:40.100Z,3.10
2022-09-23T16:35:08.426Z,3.60
2022-09-23T16:37:35.315Z,3.50
2022-09-23T16:40:03.797Z,3.10
2022-09-23T16:42:30.654Z,3.63
2022-09-23T16:44:57.551Z,3.30
2022-09-23T16:47:25.740Z,3.27
2022-09-23T16:49:52.581Z,3.37
2022-09-23T16:52:19.438Z,3.70
2022-09-23T16:54:48.440Z,3.40
2022-09-23T16:57:15.406Z,3.70
2022-09-23T17:00:00.982Z,3.37
2022-09-23T17:02:47.772Z,3.40
2022-09-23T17:05:16.373Z,3.53
2022-09-23T17:07:43.346Z,3.57
2022-09-23T17:10:11.778Z,3.50
2022-09-23T17:12:38.689Z,3.83
2022-09-23T17:15:07.439Z,4.30
2022-09-23T17:17:37.819Z,3.90
2022-09-23T17:20:06.664Z,3.77
2022-09-23T17:22:33.685Z,4.10
2022-09-23T17:25:01.548Z,4.03
2022-09-23T17:27:28.788Z,3.87
2022-09-23T17:29:55.813Z,3.87
2022-09-23T17:32:22.783Z,4.67
2022-09-23T17:34:50.969Z,4.80
2022-09-23T17:37:18.045Z,5.40
2022-09-23T17:39:45.802Z,5.33
2022-09-23T17:42:13.213Z,5.97
2022-09-23T17:44:40.060Z,5.80
2022-09-23T17:47:06.905Z,5.73
2022-09-23T17:49:35.252Z,5.67
2022-09-23T17:52:05.532Z,5.73
2022-09-23T17:54:32.781Z,4.80
2022-09-23T17:56:59.907Z,5.00
2022-09-23T17:59:26.942Z,4.80
2022-09-23T18:01:54.405Z,4.80
2022-09-23T18:04:21.459Z,4.80
2022-09-23T18:06:48.341Z,4.87
2022-09-23T18:09:16.777Z,5.00
2022-09-23T18:11:45.595Z,5.23
2022-09-23T18:14:15.294Z,5.27
2022-09-23T18:16:44.191Z,5.50
2022-09-23T18:19:13.353Z,5.63
2022-09-23T18:21:42.024Z,5.60
2022-09-23T18:24:31.289Z,5.37
2022-09-23T18:26:59.663Z,6.10
2022-09-23T18:29:26.817Z,5.43
2022-09-23T18:31:53.799Z,5.80
2022-09-23T18:34:20.746Z,5.83
2022-09-23T18:36:47.875Z,6.33
2022-09-23T18:39:14.759Z,6.17
2022-09-23T18:41:41.677Z,5.87
2022-09-23T18:44:10.009Z,5.53
2022-09-23T18:46:37.190Z,5.60
2022-09-23T18:49:23.315Z,5.50
2022-09-23T18:51:52.266Z,5.03
2022-09-23T18:54:19.866Z,5.57
2022-09-23T18:56:47.525Z,6.20
2022-09-23T18:59:19.433Z,6.30
2022-09-23T19:01:48.737Z,6.10
2022-09-23T19:04:17.062Z,6.23
2022-09-23T19:06:43.920Z,6.47
2022-09-23T19:09:12.168Z,7.10
2022-09-23T19:11:39.540Z,6.60
2022-09-23T19:14:09.861Z,6.57
2022-09-23T19:16:40.182Z,6.47
2022-09-23T19:19:08.110Z,5.93
2022-09-23T19:21:35.739Z,6.73
2022-09-23T19:24:05.532Z,7.03
2022-09-23T19:26:34.739Z,7.10
2022-09-23T19:29:04.373Z,6.67
2022-09-23T19:31:33.520Z,6.77
2022-09-23T19:34:04.520Z,7.30
2022-09-23T19:36:33.263Z,8.10
2022-09-23T19:39:05.552Z,9.50
2022-09-23T19:41:33.380Z,10.27
2022-09-23T19:44:07.141Z,9.67
2022-09-23T19:46:36.973Z,10.87
2022-09-23T19:49:06.860Z,11.90
2022-09-23T19:51:34.506Z,10.63
2022-09-23T19:54:01.640Z,15.43
2022-09-23T19:56:28.944Z,12.07
2022-09-23T19:58:57.604Z,10.27
2022-09-23T20:01:25.905Z,8.80
2022-09-23T20:03:53.371Z,7.47
2022-09-23T20:06:22.142Z,9.27
2022-09-23T20:08:49.397Z,8.73
2022-09-23T20:11:18.052Z,8.87
2022-09-23T20:13:49.411Z,8.53
2022-09-23T20:16:18.324Z,8.87
2022-09-23T20:18:46.697Z,8.43
2022-09-23T20:21:15.064Z,8.50
2022-09-23T20:23:44.102Z,9.00
2022-09-23T20:26:29.510Z,8.10
2022-09-23T20:28:56.354Z,8.53
2022-09-23T20:31:23.814Z,7.60
2022-09-23T20:33:51.383Z,7.60
2022-09-23T20:36:18.420Z,7.83
2022-09-23T20:38:46.595Z,7.83
2022-09-23T20:41:14.759Z,7.13
2022-09-23T20:43:41.631Z,6.10
2022-09-23T20:46:09.401Z,5.30
2022-09-23T20:48:36.285Z,5.63
2022-09-23T20:51:04.981Z,5.30
2022-09-23T20:53:32.623Z,5.17
2022-09-23T20:56:01.268Z,5.30
2022-09-23T20:58:29.998Z,4.90
2022-09-23T21:01:01.410Z,4.83
2022-09-23T21:03:29.224Z,5.07
2022-09-23T21:05:59.950Z,5.33
2022-09-23T21:08:26.903Z,5.40
2022-09-23T21:10:54.808Z,5.13
2022-09-23T21:13:23.414Z,5.40
2022-09-23T21:15:50.549Z,5.33
2022-09-23T21:18:22.288Z,4.80
2022-09-23T21:20:56.032Z,4.83
2022-09-23T21:23:25.634Z,4.70
2022-09-23T21:25:52.512Z,5.40
2022-09-23T21:28:19.344Z,5.03
2022-09-23T21:30:51.675Z,5.00
2022-09-23T21:33:18.830Z,4.70
2022-09-23T21:35:45.685Z,4.83
2022-09-23T21:38:12.549Z,4.70
2022-09-23T21:40:57.633Z,4.70
2022-09-23T21:43:25.404Z,4.90
2022-09-23T21:45:59.564Z,5.13
2022-09-23T21:48:27.946Z,5.43
2022-09-23T21:50:56.765Z,5.47
2022-09-23T21:53:23.919Z,5.13
2022-09-23T21:55:51.128Z,5.63
2022-09-23T21:58:17.943Z,5.30
2022-09-23T22:00:44.910Z,5.67
2022-09-23T22:03:13.207Z,5.37
2022-09-23T22:05:44.013Z,5.37
2022-09-23T22:08:10.937Z,5.23
2022-09-23T22:10:38.313Z,4.93
2022-09-23T22:13:12.584Z,5.60
2022-09-23T22:15:39.824Z,5.57
2022-09-23T22:18:06.697Z,5.50
2022-09-23T22:20:35.186Z,5.57
2022-09-23T22:23:02.473Z,4.97
2022-09-23T22:25:29.323Z,6.03
2022-09-23T22:28:15.000Z,4.77
2022-09-23T22:31:00.538Z,5.50
2022-09-23T22:33:27.401Z,5.23
2022-09-23T22:36:02.527Z,4.73
2022-09-23T22:38:31.093Z,4.87
2022-09-23T22:40:59.660Z,4.80
2022-09-23T22:43:26.568Z,5.30
2022-09-23T22:45:53.426Z,4.80
2022-09-23T22:48:21.021Z,5.63
2022-09-23T22:50:47.885Z,4.87
2022-09-23T22:53:16.773Z,4.77
2022-09-23T22:55:43.557Z,4.80
2022-09-23T22:58:30.734Z,4.80
2022-09-23T23:00:57.833Z,5.30
2022-09-23T23:03:26.424Z,5.53
2022-09-23T23:05:56.941Z,5.07
2022-09-23T23:08:27.141Z,4.93
2022-09-23T23:10:54.986Z,5.17
2022-09-23T23:13:21.921Z,4.63
2022-09-23T23:15:49.098Z,4.40
2022-09-23T23:18:16.151Z,4.20
2022-09-23T23:20:42.984Z,3.90
2022-09-23T23:23:09.802Z,4.17
2022-09-23T23:25:38.027Z,4.20
2022-09-23T23:28:05.882Z,5.07
2022-09-23T23:30:33.855Z,4.00
2022-09-23T23:33:00.873Z,4.20
2022-09-23T23:35:27.776Z,3.80
2022-09-23T23:37:54.589Z,4.33
2022-09-23T23:40:22.592Z,4.47
2022-09-23T23:42:50.888Z,4.23
2022-09-23T23:45:17.691Z,4.63
2022-09-23T23:47:45.323Z,4.27
2022-09-23T23:50:12.299Z,4.07
2022-09-23T23:52:39.111Z,4.17
2022-09-23T23:55:06.406Z,4.37
2022-09-23T23:57:33.246Z,5.33
